• Join FlightAware (Why Join?)
  • Login
  • US Flag 
11:07AM EDT


 

Airport Tracker/Info


-or-


 

Live Flight TrackerFlight Track Log ✈ SKW4664 ✈ 29-Apr-2013 ✈ KFSD - KMSP

Flight Track Log - Related Links

Times and Time Zones

All times are in EDT time to prevent confusion due to time zone crossing. See the SKW4664 flight status page for this flight to view local times or setup timezone preferences in your user account.

Time Position Orientation Groundspeed Altitude Reporting Facility
EDT Latitude Longitude Course Direction KTS MPH feet Rate Location/Type
12:08PM 43.6378 -96.6597 53° Northeast 180 207 4,800  Level Minneapolis Center
12:09PM 43.6822 -96.5772 53° Northeast 232 267 6,900 2,280 Climbing Minneapolis Center
12:10PM 43.8523 -96.2348 53° Northeast  Level FlightAware Approximate
12:10PM 43.7325 -96.4881 52° Northeast 269 310 9,500  Level Minneapolis Center
12:11PM 43.9221 -96.1068 52° Northeast  Level FlightAware Approximate
12:11PM 43.7867 -96.3908 52° Northeast 295 339 11,400  Level Minneapolis Center
12:12PM 43.9929 -95.9798 52° Northeast  Level FlightAware Approximate
12:12PM 43.8586 -96.2617 52° Northeast 349 402 14,000  Level Minneapolis Center
12:13PM 43.9186 -96.1531 52° Northeast 356 410 16,100 1,860 Climbing Minneapolis Center
12:14PM 43.9783 -96.0433 53° Northeast 361 415 17,900 1,560 Climbing Minneapolis Center
12:15PM 44.0406 -95.9300 53° Northeast 372 428 19,400 1,440 Climbing Minneapolis Center
12:16PM 44.1042 -95.8117 53° Northeast 385 443 20,900 1,500 Climbing Minneapolis Center
12:17PM 44.1822 -95.6689 53° Northeast 390 449 22,500 960 Climbing Minneapolis Center
12:18PM 44.2489 -95.5436 53° Northeast 400 460 23,000 240 Climbing Minneapolis Center
12:19PM 44.3200 -95.4100 53° Northeast 423 487 23,000  Level Minneapolis Center
12:20PM 44.3925 -95.2733 53° Northeast 437 503 23,000  Level Minneapolis Center
12:21PM 44.4639 -95.1353 54° Northeast 440 506 23,000  Level Minneapolis Center
12:22PM 44.5044 -94.9722 71° East 445 512 23,000 -840 Level Minneapolis Center
12:23PM 44.5447 -94.8072 71° East 448 516 21,400 -2,220 Descending Minneapolis Center
12:24PM 44.5867 -94.6283 72° East 443 510 18,500 -2,760 Descending Minneapolis Center
12:25PM 44.6208 -94.4783 72° East 407 468 15,800 -2,460 Descending Minneapolis Center
12:26PM 44.6536 -94.3372 72° East 384 442 13,500 -2,340 Descending Minneapolis Center
12:27PM 44.6892 -94.1786 72° East 354 407 11,100 -1,140 Descending Minneapolis Center
12:29PM 44.7169 -94.0522 73° East 343 395 11,000 -60 Descending Minneapolis Center
12:30PM 44.7519 -93.8967 72° East 349 402 11,000  Level Minneapolis Center
12:31PM 44.7867 -93.7403 73° East 349 402 11,000  Level Minneapolis Center
12:32PM 44.8086 -93.6414 73° East 332 382 11,000 -1,020 Level Minneapolis Center
12:33PM 44.8378 -93.5092 73° East 294 338 9,000 -1,500 Descending Minneapolis Center
12:34PM 44.8597 -93.4067 73° East 273 314 8,000 -540 Descending Minneapolis Center
12:35PM 44.8239 -93.3261 122° Southeast 239 275 8,000 -540 Level Minneapolis Center
12:36PM 44.7636 -93.2964 161° South 235 270 7,000 -1,140 Descending Minneapolis Center
12:37PM 44.7014 -93.2889 175° South 232 267 5,700 -1,260 Descending Minneapolis Center
12:38PM 44.6544 -93.2519 151° Southeast 224 258 4,500 -900 Descending Minneapolis Center
12:39PM 44.7122 -93.2083 28° Northeast 211 243 3,900 -780 Descending Minneapolis Center
12:40PM 44.7622 -93.2097 359° North 193 222 2,900 -1,020 Descending Minneapolis Center